Time;durP1;ratioP1;P1;durP2;ratioP2;P2;SDS_P1;SDS_P2;PMS_P1;PMS_P2;Temp;Humidity;BMP_temperature;BMP_pressure;BME280_temperature;BME280_humidity;BME280_pressure;Samples;Min_cycle;Max_cycle;Signal;HPM_P1;HPM_P2
2022/07/28 00:01:44;;;;;;;;;;;;;;;27.32;40.79;98888.81;4995476;28;20420;-95
2022/07/28 00:04:10;;;;;;;;;;;;;;;27.29;40.93;98890.41;5012630;28;20005;-93
2022/07/28 00:06:35;;;;;;;;;;;;;;;27.08;40.91;98896.66;5011393;28;19961;-94
2022/07/28 00:09:00;;;;;;;;;;;;;;;26.98;41.98;98900.19;5011517;28;19918;-94
2022/07/28 00:11:26;;;;;;;;;;;;;;;26.95;41.73;98887.13;5010898;28;20004;-94
2022/07/28 00:13:51;;;;;;;;;;;;;;;27.09;41.98;98898.22;5012188;28;19920;-94
2022/07/28 00:16:16;;;;;;;;;;;;;;;26.93;42.08;98892.25;4995630;28;19961;-94
2022/07/28 00:18:42;;;;;;;;;;;;;;;26.97;41.50;98902.13;5011610;28;20005;-94
2022/07/28 00:21:07;;;;;;;;;;;;;;;26.87;42.08;98902.91;5011344;28;19936;-94
2022/07/28 00:23:33;;;;;;;;;;;;;;;26.99;42.18;98907.28;5011157;28;19922;-94
2022/07/28 00:25:58;;;;;;;;;;;;;;;27.02;42.08;98912.03;5011376;28;19914;-94
2022/07/28 00:28:23;;;;;;;;;;;;;;;26.94;41.96;98907.66;5010995;28;19937;-94
2022/07/28 00:30:49;;;;;;;;;;;;;;;26.81;42.72;98899.75;5011017;28;19922;-95
2022/07/28 00:33:14;;;;;;;;;;;;;;;26.80;42.85;98903.66;5011082;28;19914;-95
2022/07/28 00:35:39;;;;;;;;;;;;;;;26.75;41.95;98908.78;5010434;28;19924;-93
2022/07/28 00:38:05;;;;;;;;;;;;;;;26.69;42.44;98907.59;5012005;28;19914;-94
2022/07/28 00:43:14;;;;;;;;;;;;;;;26.57;42.68;98919.75;4994457;28;20399;-94
2022/07/28 00:45:39;;;;;;;;;;;;;;;26.52;42.59;98917.31;5010930;28;19914;-94
2022/07/28 00:48:04;;;;;;;;;;;;;;;26.52;43.24;98912.63;5011155;28;19914;-94
2022/07/28 00:50:30;;;;;;;;;;;;;;;26.51;43.34;98927.59;5010211;28;20348;-94
2022/07/28 00:52:55;;;;;;;;;;;;;;;26.67;42.86;98927.31;5010768;28;19918;-94
2022/07/28 00:55:21;;;;;;;;;;;;;;;26.75;42.66;98922.56;5010437;28;19924;-95
2022/07/28 00:57:46;;;;;;;;;;;;;;;26.73;42.84;98930.47;4979230;28;19913;-94
2022/07/28 01:00:11;;;;;;;;;;;;;;;26.79;42.64;98924.19;5010687;28;19920;-94
2022/07/28 01:02:37;;;;;;;;;;;;;;;26.85;42.94;98926.56;5009803;28;19971;-94
2022/07/28 01:05:02;;;;;;;;;;;;;;;26.84;42.39;98923.03;5009670;28;19924;-95
2022/07/28 01:07:33;;;;;;;;;;;;;;;26.88;42.81;98929.34;5011239;28;19917;-95
2022/07/28 01:10:02;;;;;;;;;;;;;;;26.89;43.19;98930.94;4978469;28;19914;-94
2022/07/28 01:12:40;;;;;;;;;;;;;;;26.87;42.72;98927.75;4995106;28;19914;-94
2022/07/28 01:15:09;;;;;;;;;;;;;;;26.84;43.05;98934.06;4994600;28;19973;-94
2022/07/28 01:17:36;;;;;;;;;;;;;;;26.87;42.89;98930.53;4978046;28;19913;-94
2022/07/28 01:20:11;;;;;;;;;;;;;;;26.75;43.51;98931.69;4978302;28;20331;-96
2022/07/28 01:22:39;;;;;;;;;;;;;;;26.66;44.25;98922.94;4977097;28;20403;-95
2022/07/28 01:25:11;;;;;;;;;;;;;;;26.53;45.28;98925.22;4977997;28;19914;-94
2022/07/28 01:27:36;;;;;;;;;;;;;;;26.40;45.39;98924.78;4993891;28;19949;-95
2022/07/28 01:30:03;;;;;;;;;;;;;;;26.24;45.78;98926.25;4993926;28;19922;-94
2022/07/28 01:32:34;;;;;;;;;;;;;;;26.18;45.89;98917.53;4993434;28;19972;-94
2022/07/28 01:35:11;;;;;;;;;;;;;;;26.23;45.07;98930.19;4977651;28;19987;-94
2022/07/28 01:37:43;;;;;;;;;;;;;;;26.23;45.00;98925.47;4978464;28;20368;-95
2022/07/28 01:40:09;;;;;;;;;;;;;;;26.23;45.35;98922.72;4995388;28;19969;-95
2022/07/28 01:42:36;;;;;;;;;;;;;;;26.02;45.55;98926.09;4978245;28;20307;-95
2022/07/28 01:45:02;;;;;;;;;;;;;;;26.05;45.32;98930.84;4978053;28;19914;-94
2022/07/28 01:47:31;;;;;;;;;;;;;;;25.96;45.55;98925.69;5010122;28;19921;-94
2022/07/28 01:49:57;;;;;;;;;;;;;;;25.84;46.07;98930.66;5010731;28;19920;-94
2022/07/28 01:52:22;;;;;;;;;;;;;;;25.77;46.76;98934.16;4978010;28;20427;-94
2022/07/28 01:54:48;;;;;;;;;;;;;;;25.71;46.67;98927.41;5010182;28;19922;-95
2022/07/28 01:57:16;;;;;;;;;;;;;;;25.64;46.94;98932.88;5010716;28;19968;-94
2022/07/28 01:59:41;;;;;;;;;;;;;;;25.67;47.02;98937.59;5010450;28;19913;-94
2022/07/28 02:02:07;;;;;;;;;;;;;;;25.56;47.78;98946.56;5010460;28;20004;-94
2022/07/28 02:04:32;;;;;;;;;;;;;;;25.47;47.84;98948.88;5010502;28;19921;-94
2022/07/28 02:06:57;;;;;;;;;;;;;;;25.53;47.80;98954.84;5010242;28;19917;-95
2022/07/28 02:09:23;;;;;;;;;;;;;;;25.34;48.33;98953.06;4994014;28;19925;-95
2022/07/28 02:11:48;;;;;;;;;;;;;;;25.25;48.83;98949.81;5009579;28;20005;-94
2022/07/28 02:14:16;;;;;;;;;;;;;;;25.30;48.72;98950.28;5009952;28;19914;-94
2022/07/28 02:16:43;;;;;;;;;;;;;;;25.28;48.78;98954.59;4979501;28;19933;-93
2022/07/28 02:19:08;;;;;;;;;;;;;;;25.11;49.38;98956.72;4981773;28;19914;-94
2022/07/28 02:21:33;;;;;;;;;;;;;;;25.02;49.14;98967.25;5013214;28;19920;-94
2022/07/28 02:23:59;;;;;;;;;;;;;;;24.95;49.63;98973.47;5013149;28;19914;-94
2022/07/28 02:26:28;;;;;;;;;;;;;;;24.96;49.46;98983.28;5012497;28;19914;-94
2022/07/28 02:28:54;;;;;;;;;;;;;;;25.00;49.54;98984.13;4980988;28;19922;-94
2022/07/28 02:31:23;;;;;;;;;;;;;;;24.98;50.17;98977.41;4980389;28;19921;-93
2022/07/28 02:33:49;;;;;;;;;;;;;;;24.93;49.95;98978.56;4980641;28;19937;-93
2022/07/28 02:36:16;;;;;;;;;;;;;;;24.85;49.76;98978.84;4996689;28;19922;-94
2022/07/28 02:38:44;;;;;;;;;;;;;;;24.71;50.07;98977.47;4979659;28;19920;-94
2022/07/28 02:41:14;;;;;;;;;;;;;;;24.70;50.20;98989.66;4979916;28;20381;-94
2022/07/28 02:43:39;;;;;;;;;;;;;;;24.76;49.41;98990.94;4980066;28;19921;-95
2022/07/28 02:46:05;;;;;;;;;;;;;;;24.68;49.69;98996.72;5012692;28;19914;-93
2022/07/28 02:48:31;;;;;;;;;;;;;;;24.71;49.62;98996.75;4980021;28;19914;-94
2022/07/28 02:50:57;;;;;;;;;;;;;;;24.62;49.65;98999.00;4980267;28;19961;-95
2022/07/28 02:53:22;;;;;;;;;;;;;;;24.63;49.62;99003.31;5011957;28;19940;-94
2022/07/28 02:55:48;;;;;;;;;;;;;;;24.48;49.87;99007.00;5012431;28;19925;-94
2022/07/28 02:58:13;;;;;;;;;;;;;;;24.49;50.48;99014.94;5012727;28;20013;-94
2022/07/28 03:00:38;;;;;;;;;;;;;;;24.43;50.58;99012.84;5012379;28;19914;-93
2022/07/28 03:03:04;;;;;;;;;;;;;;;24.39;50.43;99018.28;4980130;28;19913;-94
2022/07/28 03:05:29;;;;;;;;;;;;;;;24.39;50.37;99019.06;5012364;28;19913;-94
2022/07/28 03:07:56;;;;;;;;;;;;;;;24.40;50.60;99019.88;5012741;28;19914;-94
2022/07/28 03:10:22;;;;;;;;;;;;;;;24.34;50.91;99015.84;5013637;28;19918;-94
2022/07/28 03:12:47;;;;;;;;;;;;;;;24.26;50.90;99019.63;4980432;28;19964;-94
2022/07/28 03:15:13;;;;;;;;;;;;;;;24.24;51.66;99017.28;5012359;28;19928;-95
2022/07/28 03:17:38;;;;;;;;;;;;;;;24.18;50.93;99025.03;4979405;28;19991;-94
2022/07/28 03:20:04;;;;;;;;;;;;;;;24.08;51.30;99028.41;5012808;28;19921;-93
2022/07/28 03:22:29;;;;;;;;;;;;;;;24.06;52.11;99030.72;4980059;28;19948;-93
2022/07/28 03:24:55;;;;;;;;;;;;;;;24.04;52.51;99037.78;5012377;28;19925;-94
2022/07/28 03:27:21;;;;;;;;;;;;;;;23.94;52.02;99039.94;5012600;28;20377;-92
2022/07/28 03:29:52;;;;;;;;;;;;;;;24.04;51.54;99046.03;4993835;28;20366;-91
2022/07/28 03:32:18;;;;;;;;;;;;;;;23.98;51.89;99045.53;4963268;28;19913;-91
2022/07/28 03:34:43;;;;;;;;;;;;;;;24.06;51.82;99050.00;4963069;28;20388;-93
2022/07/28 03:37:10;;;;;;;;;;;;;;;24.17;51.82;99055.66;4979129;28;19968;-93
2022/07/28 03:39:44;;;;;;;;;;;;;;;24.11;51.91;99060.66;4978725;28;19914;-94
2022/07/28 03:42:10;;;;;;;;;;;;;;;24.06;52.12;99060.19;4978612;28;19921;-94
2022/07/28 03:44:37;;;;;;;;;;;;;;;23.99;52.49;99069.13;4997951;28;19913;-94
2022/07/28 03:47:02;;;;;;;;;;;;;;;23.91;53.15;99062.69;4982010;28;19913;-92
2022/07/28 03:49:28;;;;;;;;;;;;;;;23.87;52.84;99059.09;4983569;28;20320;-92
2022/07/28 03:51:53;;;;;;;;;;;;;;;23.98;52.69;99054.56;4979260;28;19921;-92
2022/07/28 03:54:18;;;;;;;;;;;;;;;23.87;53.17;99056.34;4973122;28;19925;-92
2022/07/28 03:56:44;;;;;;;;;;;;;;;23.88;53.14;99057.13;4978168;28;19918;-91
2022/07/28 03:59:10;;;;;;;;;;;;;;;23.94;52.99;99064.69;4978826;28;19914;-92
2022/07/28 04:01:35;;;;;;;;;;;;;;;23.82;53.56;99064.09;4979000;28;19914;-92
2022/07/28 04:04:00;;;;;;;;;;;;;;;23.62;54.42;99066.84;4995128;28;19920;-91
2022/07/28 04:06:26;;;;;;;;;;;;;;;23.52;54.55;99064.69;4978806;28;19968;-91
2022/07/28 04:08:51;;;;;;;;;;;;;;;23.55;54.02;99067.50;4994950;28;20307;-90
2022/07/28 04:11:16;;;;;;;;;;;;;;;23.62;53.90;99069.59;4978672;28;19931;-91
2022/07/28 04:13:42;;;;;;;;;;;;;;;23.73;53.62;99078.03;4997767;28;19913;-95
2022/07/28 04:16:07;;;;;;;;;;;;;;;23.87;53.18;99075.59;4981442;28;20391;-93
2022/07/28 04:18:32;;;;;;;;;;;;;;;23.85;53.20;99077.91;4982980;28;19918;-93
2022/07/28 04:20:58;;;;;;;;;;;;;;;23.73;53.01;99078.84;4997634;28;19921;-91
2022/07/28 04:23:23;;;;;;;;;;;;;;;23.77;53.83;99078.94;4960963;28;19924;-92
2022/07/28 04:25:48;;;;;;;;;;;;;;;23.79;53.63;99084.88;4978586;28;19914;-92
2022/07/28 04:28:14;;;;;;;;;;;;;;;23.79;52.70;99084.88;4978441;28;19914;-92
2022/07/28 04:30:39;;;;;;;;;;;;;;;23.74;53.48;99080.44;4975215;28;19944;-91
2022/07/28 04:33:05;;;;;;;;;;;;;;;23.83;53.18;99080.22;4979378;28;19920;-94
2022/07/28 04:35:30;;;;;;;;;;;;;;;23.90;53.75;99087.81;5001393;28;19917;-91
2022/07/28 04:37:57;;;;;;;;;;;;;;;23.99;52.69;99089.16;4961230;28;19918;-93
2022/07/28 04:40:22;;;;;;;;;;;;;;;24.10;53.08;99094.06;4961415;28;19914;-91
2022/07/28 04:42:48;;;;;;;;;;;;;;;24.21;52.56;99092.28;4961369;28;19965;-91
2022/07/28 04:45:13;;;;;;;;;;;;;;;24.25;51.98;99087.63;4961519;28;19940;-91
2022/07/28 04:47:38;;;;;;;;;;;;;;;24.33;51.98;99094.06;4963644;28;20347;-91
2022/07/28 04:50:04;;;;;;;;;;;;;;;24.36;51.99;99098.81;4979465;28;20294;-93
2022/07/28 04:52:30;;;;;;;;;;;;;;;24.39;51.35;99098.88;4982124;28;19925;-92
2022/07/28 04:54:55;;;;;;;;;;;;;;;24.50;51.83;99098.31;5010855;28;20307;-91
2022/07/28 04:57:21;;;;;;;;;;;;;;;24.70;51.62;99099.00;5010399;28;19987;-92
2022/07/28 04:59:47;;;;;;;;;;;;;;;24.85;51.41;99097.25;5009605;28;19914;-94
2022/07/28 05:02:12;;;;;;;;;;;;;;;24.84;51.38;99109.44;5003348;28;20271;-94
2022/07/28 05:04:38;;;;;;;;;;;;;;;24.90;50.82;99103.25;4994045;28;20000;-93
2022/07/28 05:07:04;;;;;;;;;;;;;;;25.00;50.94;99102.59;4979106;28;20363;-93
2022/07/28 05:09:30;;;;;;;;;;;;;;;25.13;50.15;99108.69;4977847;28;19918;-92
2022/07/28 05:11:57;;;;;;;;;;;;;;;25.07;49.98;99118.44;4979196;28;20017;-95
2022/07/28 05:14:22;;;;;;;;;;;;;;;25.07;50.39;99110.19;4979838;28;20013;-92
2022/07/28 05:16:47;;;;;;;;;;;;;;;25.10;50.49;99111.38;4979696;28;20478;-95
2022/07/28 05:19:13;;;;;;;;;;;;;;;25.23;49.14;99110.00;4979805;28;20011;-95
2022/07/28 05:21:38;;;;;;;;;;;;;;;25.33;48.82;99119.59;4979885;28;19918;-94
2022/07/28 05:24:04;;;;;;;;;;;;;;;25.42;47.99;99117.34;4978614;28;20347;-93
2022/07/28 05:26:31;;;;;;;;;;;;;;;25.53;47.67;99123.78;4978683;28;19914;-93
2022/07/28 05:28:57;;;;;;;;;;;;;;;25.63;47.93;99121.53;4979247;28;19914;-93
2022/07/28 05:31:22;;;;;;;;;;;;;;;25.64;47.78;99118.41;4973015;28;19933;-93
2022/07/28 05:33:50;;;;;;;;;;;;;;;25.73;48.22;99118.91;4960258;28;19914;-93
2022/07/28 05:36:16;;;;;;;;;;;;;;;25.86;47.54;99130.47;4977124;28;19918;-94
2022/07/28 05:38:43;;;;;;;;;;;;;;;26.06;46.59;99130.31;4980440;28;19921;-93
2022/07/28 05:41:11;;;;;;;;;;;;;;;26.19;46.09;99128.88;4997368;28;19925;-91
2022/07/28 05:43:37;;;;;;;;;;;;;;;26.25;46.38;99130.13;4978742;28;19940;-91
2022/07/28 05:46:05;;;;;;;;;;;;;;;26.23;45.51;99139.94;4979465;28;19973;-93
2022/07/28 05:48:31;;;;;;;;;;;;;;;26.27;45.26;99147.06;4997297;28;19913;-93
2022/07/28 05:51:04;;;;;;;;;;;;;;;26.32;45.27;99141.22;4977142;28;19914;-92
2022/07/28 05:53:30;;;;;;;;;;;;;;;26.51;44.67;99147.69;4980963;28;19922;-91
2022/07/28 05:55:55;;;;;;;;;;;;;;;26.55;44.65;99143.00;4980093;28;19980;-91
2022/07/28 05:58:21;;;;;;;;;;;;;;;26.54;44.70;99142.22;4981199;28;20001;-92
2022/07/28 06:00:46;;;;;;;;;;;;;;;26.67;44.28;99150.22;4964988;28;19914;-92
2022/07/28 06:03:18;;;;;;;;;;;;;;;26.73;43.83;99151.44;4964786;28;20424;-90
2022/07/28 06:05:43;;;;;;;;;;;;;;;26.85;42.84;99145.63;4966115;28;20352;-93
2022/07/28 06:08:08;;;;;;;;;;;;;;;26.96;42.74;99151.25;4976378;28;19917;-93
2022/07/28 06:13:18;;;;;;;;;;;;;;;27.24;43.01;99152.63;5000814;28;19968;-93
2022/07/28 06:15:46;;;;;;;;;;;;;;;27.28;41.85;99156.97;4982526;28;20013;-92
2022/07/28 06:18:12;;;;;;;;;;;;;;;27.55;40.34;99154.75;4980451;28;19914;-91
2022/07/28 06:20:37;;;;;;;;;;;;;;;27.60;39.93;99154.38;4981690;28;19925;-93
2022/07/28 06:23:03;;;;;;;;;;;;;;;27.76;38.85;99156.78;4981654;28;20360;-93
2022/07/28 06:25:28;;;;;;;;;;;;;;;27.76;38.98;99156.78;4981777;28;19917;-94
2022/07/28 06:27:54;;;;;;;;;;;;;;;27.93;38.50;99147.03;4995823;28;20045;-93
2022/07/28 06:30:20;;;;;;;;;;;;;;;27.99;39.28;99150.19;4998322;28;19922;-93
2022/07/28 06:32:51;;;;;;;;;;;;;;;28.07;38.74;99145.47;5001029;28;19949;-94
2022/07/28 06:35:16;;;;;;;;;;;;;;;28.09;39.30;99148.63;5013712;28;19925;-91
2022/07/28 06:37:45;;;;;;;;;;;;;;;28.12;39.62;99150.59;5014162;28;19921;-91
2022/07/28 06:40:11;;;;;;;;;;;;;;;28.29;38.85;99154.59;4998529;28;19914;-90
2022/07/28 06:42:36;;;;;;;;;;;;;;;28.45;38.29;99151.44;5001197;28;19913;-91
2022/07/28 06:45:02;;;;;;;;;;;;;;;28.47;38.03;99155.38;4956796;28;19914;-92
2022/07/28 06:47:27;;;;;;;;;;;;;;;28.46;38.41;99162.13;4980118;28;19913;-91
2022/07/28 06:49:53;;;;;;;;;;;;;;;28.40;38.17;99158.94;4975623;28;19932;-90
2022/07/28 06:52:21;;;;;;;;;;;;;;;28.47;38.04;99169.22;4985879;28;19913;-93
2022/07/28 06:54:49;;;;;;;;;;;;;;;28.59;38.04;99168.88;4984721;28;19926;-96
2022/07/28 06:57:15;;;;;;;;;;;;;;;28.46;38.16;99170.44;4986089;28;20280;-94
2022/07/28 06:59:56;;;;;;;;;;;;;;;28.56;38.00;99169.69;4987913;28;19925;-93
2022/07/28 07:02:22;;;;;;;;;;;;;;;28.56;38.11;99166.13;4983918;28;20427;-91
2022/07/28 07:04:50;;;;;;;;;;;;;;;28.50;38.96;99160.19;4982014;28;19964;-91
2022/07/28 07:07:18;;;;;;;;;;;;;;;28.66;38.81;99168.13;4996174;28;19914;-91
2022/07/28 07:09:47;;;;;;;;;;;;;;;28.64;38.49;99167.72;4981000;28;20013;-92
2022/07/28 07:12:12;;;;;;;;;;;;;;;28.54;38.84;99166.50;4983531;28;20042;-95
2022/07/28 07:14:37;;;;;;;;;;;;;;;28.63;38.59;99166.13;4997835;28;19914;-90
2022/07/28 07:17:10;;;;;;;;;;;;;;;28.72;38.51;99168.47;4998592;28;19918;-94
2022/07/28 07:19:36;;;;;;;;;;;;;;;28.75;38.65;99162.94;4982341;28;19914;-91
2022/07/28 07:22:01;;;;;;;;;;;;;;;28.91;38.96;99164.50;4964947;28;19917;-91
2022/07/28 07:24:26;;;;;;;;;;;;;;;29.11;38.40;99157.38;4965238;28;20005;-90
2022/07/28 07:26:51;;;;;;;;;;;;;;;29.20;38.81;99155.00;4995342;28;19937;-88
2022/07/28 07:29:18;;;;;;;;;;;;;;;29.34;38.32;99156.16;4966755;28;19914;-90
2022/07/28 07:31:44;;;;;;;;;;;;;;;29.52;36.85;99162.44;4979469;28;19979;-89
2022/07/28 07:34:09;;;;;;;;;;;;;;;29.72;36.92;99159.22;4979475;28;19921;-89
2022/07/28 07:36:37;;;;;;;;;;;;;;;29.75;36.80;99172.28;4981250;28;20406;-94
2022/07/28 07:39:26;;;;;;;;;;;;;;;29.78;36.97;99163.13;4968352;28;19914;-95
2022/07/28 07:41:54;;;;;;;;;;;;;;;29.80;37.65;99172.66;4983924;28;20337;-95
2022/07/28 07:44:19;;;;;;;;;;;;;;;29.83;36.25;99175.81;4964710;28;20012;-91
2022/07/28 07:46:50;;;;;;;;;;;;;;;29.78;37.65;99175.03;4983968;28;20324;-95
2022/07/28 07:49:17;;;;;;;;;;;;;;;29.99;36.62;99171.38;4970299;28;19920;-93
2022/07/28 07:51:42;;;;;;;;;;;;;;;29.92;35.91;99176.94;4981593;28;19901;-95
2022/07/28 07:54:10;;;;;;;;;;;;;;;30.01;36.50;99173.75;4967232;28;19918;-94
2022/07/28 07:56:35;;;;;;;;;;;;;;;30.13;35.81;99180.81;4979740;28;19924;-93
2022/07/28 07:59:01;;;;;;;;;;;;;;;30.17;35.94;99176.03;4963753;28;19917;-93
2022/07/28 08:01:26;;;;;;;;;;;;;;;30.10;36.35;99181.63;4978699;28;19937;-92
2022/07/28 08:03:54;;;;;;;;;;;;;;;30.09;36.37;99177.25;4963199;28;20369;-95
2022/07/28 08:06:22;;;;;;;;;;;;;;;30.20;37.40;99172.44;4965890;28;20025;-92
2022/07/28 08:08:52;;;;;;;;;;;;;;;30.27;36.66;99169.59;4976953;28;19937;-93
2022/07/28 08:11:18;;;;;;;;;;;;;;;30.40;35.80;99159.66;4994284;28;19914;-94
2022/07/28 08:13:43;;;;;;;;;;;;;;;30.56;35.84;99167.44;4993832;28;20408;-90
2022/07/28 08:16:08;;;;;;;;;;;;;;;30.69;35.10;99153.84;5012692;28;19918;-94
2022/07/28 08:18:36;;;;;;;;;;;;;;;30.81;35.22;99156.09;4969578;28;19914;-94
2022/07/28 08:21:02;;;;;;;;;;;;;;;30.92;35.07;99158.03;4977871;28;20323;-93
2022/07/28 08:23:30;;;;;;;;;;;;;;;30.90;36.03;99163.22;4986121;28;19914;-94
2022/07/28 08:25:55;;;;;;;;;;;;;;;31.13;36.53;99157.84;4978343;28;19914;-94
2022/07/28 08:28:21;;;;;;;;;;;;;;;31.23;35.27;99158.91;4998446;28;19914;-93
2022/07/28 08:30:46;;;;;;;;;;;;;;;31.36;35.58;99156.41;4981633;28;20346;-93
2022/07/28 08:33:15;;;;;;;;;;;;;;;31.44;35.40;99159.91;4997158;28;19925;-93
2022/07/28 08:35:40;;;;;;;;;;;;;;;31.32;35.33;99166.78;4998175;28;19957;-92
2022/07/28 08:38:05;;;;;;;;;;;;;;;31.17;35.51;99158.59;4998185;28;19924;-93
2022/07/28 08:40:31;;;;;;;;;;;;;;;31.26;34.98;99163.66;4982049;28;19914;-92
2022/07/28 08:42:59;;;;;;;;;;;;;;;31.12;35.33;99169.38;4980792;28;19913;-92
2022/07/28 08:45:25;;;;;;;;;;;;;;;31.17;35.86;99168.91;4981463;28;19913;-92
2022/07/28 08:47:53;;;;;;;;;;;;;;;31.33;35.62;99169.13;4997772;28;20334;-92
2022/07/28 08:50:23;;;;;;;;;;;;;;;31.41;36.22;99164.28;4964755;28;19908;-94
2022/07/28 08:52:51;;;;;;;;;;;;;;;31.50;35.93;99169.38;4980704;28;20362;-93
2022/07/28 08:55:26;;;;;;;;;;;;;;;31.50;35.21;99163.81;4979094;28;20307;-93
2022/07/28 08:57:55;;;;;;;;;;;;;;;31.44;36.00;99159.91;4980428;28;20311;-93
2022/07/28 09:00:20;;;;;;;;;;;;;;;31.57;35.05;99164.53;4964921;28;19921;-93
2022/07/28 09:02:45;;;;;;;;;;;;;;;31.64;35.78;99168.41;4962521;28;19918;-90
2022/07/28 09:05:13;;;;;;;;;;;;;;;31.75;35.34;99166.28;4977799;28;19971;-94
2022/07/28 09:07:41;;;;;;;;;;;;;;;31.83;35.48;99173.34;4985345;28;20364;-92
2022/07/28 09:10:07;;;;;;;;;;;;;;;31.99;34.99;99164.41;4973018;28;19956;-93
2022/07/28 09:12:33;;;;;;;;;;;;;;;32.06;34.73;99158.72;4962195;28;19914;-91
2022/07/28 09:15:00;;;;;;;;;;;;;;;32.12;34.96;99162.63;4977845;28;19918;-92
2022/07/28 09:17:28;;;;;;;;;;;;;;;32.19;34.92;99156.94;5003619;28;20456;-92
2022/07/28 09:19:53;;;;;;;;;;;;;;;32.19;35.42;99156.19;4972010;28;19918;-93
2022/07/28 09:22:22;;;;;;;;;;;;;;;32.30;34.89;99161.56;4980023;28;19970;-94
2022/07/28 09:24:47;;;;;;;;;;;;;;;32.45;34.24;99154.56;5000758;28;19913;-92
2022/07/28 09:27:13;;;;;;;;;;;;;;;32.57;33.87;99154.00;4980584;28;20489;-94
2022/07/28 09:29:40;;;;;;;;;;;;;;;32.69;33.97;99160.19;4987127;28;19913;-94
2022/07/28 09:32:05;;;;;;;;;;;;;;;32.73;33.73;99153.34;4986070;28;19945;-94
2022/07/28 09:34:37;;;;;;;;;;;;;;;32.81;34.47;99156.81;5017076;28;19914;-94
2022/07/28 09:37:03;;;;;;;;;;;;;;;32.75;33.35;99159.28;4982855;28;19921;-91
2022/07/28 09:39:31;;;;;;;;;;;;;;;32.86;32.85;99161.88;4966161;28;20364;-94
2022/07/28 09:41:57;;;;;;;;;;;;;;;32.93;32.63;99170.09;4986631;28;19913;-90
2022/07/28 09:44:23;;;;;;;;;;;;;;;32.78;33.07;99163.22;5005607;28;19914;-90
2022/07/28 09:46:48;;;;;;;;;;;;;;;32.64;33.81;99169.03;4977444;28;19921;-92
2022/07/28 09:49:13;;;;;;;;;;;;;;;32.60;33.76;99164.31;4973541;28;20594;-92
2022/07/28 09:51:39;;;;;;;;;;;;;;;32.59;34.00;99162.72;4982975;28;19921;-90
2022/07/28 09:54:06;;;;;;;;;;;;;;;32.64;33.80;99164.22;4972127;28;19918;-93
2022/07/28 09:56:31;;;;;;;;;;;;;;;32.56;33.90;99168.34;4995717;28;20250;-93
2022/07/28 09:58:59;;;;;;;;;;;;;;;32.45;34.28;99168.50;4967443;28;19914;-91
2022/07/28 10:01:25;;;;;;;;;;;;;;;32.39;34.26;99170.97;4987371;28;20219;-91
2022/07/28 10:03:52;;;;;;;;;;;;;;;32.40;34.56;99161.41;4979811;28;19914;-95
2022/07/28 10:06:27;;;;;;;;;;;;;;;32.49;34.60;99169.22;4984022;28;19914;-90
2022/07/28 10:08:53;;;;;;;;;;;;;;;32.67;34.33;99171.75;4969890;28;20408;-93
2022/07/28 10:11:23;;;;;;;;;;;;;;;32.69;33.71;99172.13;4965685;28;19968;-94
2022/07/28 10:14:12;;;;;;;;;;;;;;;32.66;33.80;99174.97;4992095;28;19918;-92
2022/07/28 10:16:43;;;;;;;;;;;;;;;32.68;33.38;99172.53;4973188;28;20016;-92
2022/07/28 10:19:15;;;;;;;;;;;;;;;32.75;34.18;99166.88;4968308;28;20385;-92
2022/07/28 10:21:43;;;;;;;;;;;;;;;32.83;34.09;99162.72;4967795;28;19914;-95
2022/07/28 10:24:08;;;;;;;;;;;;;;;32.92;33.54;99173.34;5044407;23;19926;-96
2022/07/28 10:26:37;;;;;;;;;;;;;;;33.07;33.32;99160.69;4987502;28;19973;-96
2022/07/28 10:29:05;;;;;;;;;;;;;;;33.16;32.44;99160.97;4965101;28;19913;-93
2022/07/28 10:31:33;;;;;;;;;;;;;;;33.11;32.48;99155.88;4957225;28;20025;-92
2022/07/28 10:34:02;;;;;;;;;;;;;;;33.14;32.40;99157.00;4979967;28;19924;-92
2022/07/28 10:36:33;;;;;;;;;;;;;;;33.04;32.63;99150.41;4965945;28;19957;-93
2022/07/28 10:39:01;;;;;;;;;;;;;;;33.11;32.05;99144.72;4967645;28;19914;-93
2022/07/28 10:41:27;;;;;;;;;;;;;;;33.28;31.92;99145.59;4964851;28;20035;-93
2022/07/28 10:43:53;;;;;;;;;;;;;;;33.41;30.93;99143.75;4996009;28;19926;-91
2022/07/28 10:46:21;;;;;;;;;;;;;;;33.47;30.96;99141.22;4980778;28;20307;-93
2022/07/28 10:48:52;;;;;;;;;;;;;;;33.58;31.37;99141.00;4981370;28;19945;-92
2022/07/28 10:51:20;;;;;;;;;;;;;;;33.68;30.52;99147.59;4978807;28;19914;-93
2022/07/28 10:53:53;;;;;;;;;;;;;;;33.35;30.96;99148.25;4963754;28;19914;-92
2022/07/28 10:56:34;;;;;;;;;;;;;;;33.25;31.61;99142.88;4997821;28;19928;-95
2022/07/28 10:59:10;;;;;;;;;;;;;;;33.38;31.92;99149.38;4981296;28;19918;-93
2022/07/28 11:01:36;;;;;;;;;;;;;;;33.41;31.89;99145.72;4964051;28;19977;-93
2022/07/28 11:04:11;;;;;;;;;;;;;;;;;;;;;
2022/07/28 11:06:39;;;;;;;;;;;;;;;33.34;31.76;99143.88;4971853;28;20431;-90
2022/07/28 11:09:32;;;;;;;;;;;;;;;33.34;31.91;99143.09;4973809;28;19968;-92
2022/07/28 11:11:57;;;;;;;;;;;;;;;33.26;31.60;99128.47;4959339;28;19920;-91
2022/07/28 11:14:28;;;;;;;;;;;;;;;33.35;31.71;99137.09;4944310;28;20401;-94
2022/07/28 11:17:02;;;;;;;;;;;;;;;33.46;31.83;99131.28;4965079;28;19918;-93
2022/07/28 11:19:50;;;;;;;;;;;;;;;33.46;31.41;99131.28;4960623;28;19925;-94
2022/07/28 11:24:56;;;;;;;;;;;;;;;33.57;31.62;99125.47;4993387;28;19922;-95
2022/07/28 11:27:48;;;;;;;;;;;;;;;33.69;31.86;99118.47;4973147;28;19986;-91
2022/07/28 11:30:22;;;;;;;;;;;;;;;33.78;31.38;99122.22;4997680;28;20376;-91
2022/07/28 11:32:56;;;;;;;;;;;;;;;34.02;31.23;99125.69;4989710;28;19914;-92
2022/07/28 11:35:22;;;;;;;;;;;;;;;33.99;30.61;99120.19;4997757;28;20299;-91
2022/07/28 11:38:00;;;;;;;;;;;;;;;34.06;31.00;99124.84;4964099;28;19920;-91
2022/07/28 11:40:35;;;;;;;;;;;;;;;34.09;30.17;99118.38;5007734;28;19913;-91
2022/07/28 11:43:21;;;;;;;;;;;;;;;34.05;29.54;99117.66;4971330;28;19965;-95
2022/07/28 11:45:53;;;;;;;;;;;;;;;34.14;30.28;99115.06;4982328;28;19913;-93
2022/07/28 11:48:24;;;;;;;;;;;;;;;34.33;30.33;99110.66;4967106;28;19918;-91
2022/07/28 11:51:04;;;;;;;;;;;;;;;34.23;30.49;99115.25;4961621;28;19929;-95
2022/07/28 11:53:39;;;;;;;;;;;;;;;34.05;30.60;99124.03;4961957;28;19914;-94
2022/07/28 11:56:05;;;;;;;;;;;;;;;34.05;30.57;99107.25;4977067;28;19918;-92
2022/07/28 11:58:33;;;;;;;;;;;;;;;34.10;30.40;99117.94;4945566;28;20126;-92
2022/07/28 12:01:25;;;;;;;;;;;;;;;;;;;;;
2022/07/28 12:03:52;;;;;;;;;;;;;;;34.36;29.92;99115.34;4976622;28;19961;-94
2022/07/28 12:06:39;;;;;;;;;;;;;;;34.18;30.32;99124.16;4955734;28;20289;-96
2022/07/28 12:09:09;;;;;;;;;;;;;;;34.22;30.86;99122.06;4968353;28;20008;-96
2022/07/28 12:11:35;;;;;;;;;;;;;;;34.14;30.23;99126.25;4946817;28;19949;-93
2022/07/28 12:14:02;;;;;;;;;;;;;;;34.05;30.45;99120.44;4945742;28;19914;-94
2022/07/28 12:16:28;;;;;;;;;;;;;;;34.10;30.32;99122.75;4959955;28;20005;-91
2022/07/28 12:19:20;;;;;;;;;;;;;;;34.12;29.86;99128.69;4958843;28;19918;-92
2022/07/28 12:21:57;;;;;;;;;;;;;;;34.08;30.69;99111.22;4985598;28;20485;-93
2022/07/28 12:24:22;;;;;;;;;;;;;;;34.00;30.58;99118.97;4992067;28;19945;-95
2022/07/28 12:26:48;;;;;;;;;;;;;;;33.76;30.35;99102.31;4994726;28;20399;-93
2022/07/28 12:29:13;;;;;;;;;;;;;;;33.79;30.61;99101.47;4988089;28;19917;-93
2022/07/28 12:31:49;;;;;;;;;;;;;;;33.90;30.70;99109.59;4981016;28;19924;-94
2022/07/28 12:37:26;;;;;;;;;;;;;;;34.09;29.98;99093.22;4998036;28;20011;-95
2022/07/28 12:39:58;;;;;;;;;;;;;;;34.27;29.40;99098.41;4982160;28;22366;-93
2022/07/28 12:45:46;;;;;;;;;;;;;;;34.45;28.69;99083.97;4963479;29;19918;-94
2022/07/28 12:48:14;;;;;;;;;;;;;;;34.58;28.77;99082.03;4940434;29;19919;-95
2022/07/28 12:50:45;;;;;;;;;;;;;;;34.67;28.15;99081.44;4943221;29;19914;-96
2022/07/28 12:53:24;;;;;;;;;;;;;;;34.73;28.46;99076.88;4940964;29;20373;-93
2022/07/28 12:55:57;;;;;;;;;;;;;;;34.69;28.51;99074.19;4939987;29;20298;-93
2022/07/28 12:58:24;;;;;;;;;;;;;;;34.80;28.76;99069.09;4929477;29;19918;-93
2022/07/28 13:00:49;;;;;;;;;;;;;;;34.85;28.18;99073.38;4930158;28;19919;-91
2022/07/28 13:03:39;;;;;;;;;;;;;;;35.01;28.35;99072.50;5000905;28;19975;-93
2022/07/28 13:06:08;;;;;;;;;;;;;;;35.02;28.70;99082.50;4999316;28;20352;-94